createdAt,value
2023-03-17T00:01:41.136Z,4.10
2023-03-17T00:07:02.923Z,4.20
2023-03-17T00:12:25.048Z,4.20
2023-03-17T00:17:47.827Z,4.30
2023-03-17T00:23:24.540Z,4.30
2023-03-17T00:28:46.632Z,4.30
2023-03-17T00:34:12.365Z,4.30
2023-03-17T00:39:34.917Z,4.20
2023-03-17T00:44:56.425Z,4.30
2023-03-17T00:50:25.502Z,4.20
2023-03-17T00:55:48.004Z,4.20
2023-03-17T01:01:10.896Z,4.20
2023-03-17T01:06:32.776Z,4.20
2023-03-17T01:11:55.939Z,4.20
2023-03-17T01:17:18.792Z,4.30
2023-03-17T01:22:40.633Z,4.20
2023-03-17T01:28:02.354Z,4.30
2023-03-17T01:33:23.725Z,4.20
2023-03-17T01:38:48.275Z,4.20
2023-03-17T01:44:17.242Z,4.30
2023-03-17T01:49:39.812Z,4.20
2023-03-17T01:55:12.053Z,4.20
2023-03-17T02:00:34.465Z,4.10
2023-03-17T02:05:58.069Z,4.20
2023-03-17T02:11:21.236Z,4.20
2023-03-17T02:16:45.846Z,4.20
2023-03-17T02:22:11.529Z,4.20
2023-03-17T02:27:45.396Z,4.20
2023-03-17T02:33:07.239Z,4.20
2023-03-17T02:38:28.970Z,4.20
2023-03-17T02:43:50.688Z,4.10
2023-03-17T02:49:12.942Z,4.10
2023-03-17T02:54:34.507Z,4.00
2023-03-17T02:59:56.045Z,4.00
2023-03-17T03:05:17.453Z,4.00
2023-03-17T03:10:39.203Z,4.00
2023-03-17T03:16:00.830Z,3.80
2023-03-17T03:21:22.560Z,3.90
2023-03-17T03:26:44.071Z,3.80
2023-03-17T03:32:06.012Z,3.80
2023-03-17T03:37:27.642Z,3.70
2023-03-17T03:42:49.300Z,3.70
2023-03-17T03:48:11.403Z,3.60
2023-03-17T03:53:32.931Z,3.50
2023-03-17T03:58:54.425Z,3.50
2023-03-17T04:04:16.444Z,3.50
2023-03-17T04:09:39.163Z,3.60
2023-03-17T04:15:00.997Z,3.50
2023-03-17T04:20:22.670Z,3.50
2023-03-17T04:25:45.121Z,3.60
2023-03-17T04:31:07.829Z,3.60
2023-03-17T04:36:29.629Z,3.60
2023-03-17T04:41:51.356Z,3.60
2023-03-17T04:47:13.072Z,3.70
2023-03-17T04:52:38.196Z,3.70
2023-03-17T04:57:59.883Z,3.80
2023-03-17T05:03:27.106Z,3.80
2023-03-17T05:08:49.133Z,3.80
2023-03-17T05:14:10.804Z,3.80
2023-03-17T05:19:32.615Z,3.70
2023-03-17T05:24:54.070Z,3.80
2023-03-17T05:30:15.995Z,3.70
2023-03-17T05:35:37.833Z,3.50
2023-03-17T05:40:59.493Z,3.50
2023-03-17T05:46:21.858Z,3.50
2023-03-17T05:51:43.529Z,3.40
2023-03-17T05:57:05.235Z,3.40
2023-03-17T06:02:27.348Z,3.50
2023-03-17T06:07:54.882Z,3.50
2023-03-17T06:13:17.595Z,3.70
2023-03-17T06:18:39.432Z,3.80
2023-03-17T06:24:01.081Z,4.00
2023-03-17T06:29:22.891Z,4.20
2023-03-17T06:34:44.876Z,4.30
2023-03-17T06:40:10.338Z,4.40
2023-03-17T06:45:33.314Z,4.60
2023-03-17T06:50:55.261Z,4.60
2023-03-17T06:56:29.224Z,4.50
2023-03-17T07:01:52.293Z,4.50
2023-03-17T07:07:13.950Z,4.70
2023-03-17T07:12:36.049Z,4.80
2023-03-17T07:18:01.211Z,5.00
2023-03-17T07:23:23.794Z,5.20
2023-03-17T07:28:45.794Z,5.50
2023-03-17T07:34:07.949Z,5.80
2023-03-17T07:39:29.452Z,6.10
2023-03-17T07:44:51.553Z,6.10
2023-03-17T07:50:14.178Z,6.40
2023-03-17T07:55:38.218Z,6.50
2023-03-17T08:01:00.148Z,6.60
2023-03-17T08:06:22.477Z,6.60
2023-03-17T08:11:44.103Z,6.60
2023-03-17T08:17:06.580Z,6.70
2023-03-17T08:22:28.483Z,6.70
2023-03-17T08:27:50.408Z,7.10
2023-03-17T08:33:11.956Z,7.60
2023-03-17T08:38:38.440Z,7.90
2023-03-17T08:44:02.689Z,8.20
2023-03-17T08:49:24.564Z,8.70
2023-03-17T08:54:47.248Z,8.90
2023-03-17T09:00:12.303Z,9.30
2023-03-17T09:05:36.860Z,9.50
2023-03-17T09:11:00.188Z,9.80
2023-03-17T09:16:24.261Z,9.90
2023-03-17T09:21:46.306Z,10.30
2023-03-17T09:27:08.079Z,10.30
2023-03-17T09:32:29.744Z,10.50
2023-03-17T09:37:51.815Z,10.90
2023-03-17T09:43:37.289Z,11.20
2023-03-17T09:49:21.114Z,11.40
2023-03-17T09:54:42.947Z,11.70
2023-03-17T10:00:16.745Z,11.80
2023-03-17T10:05:39.060Z,12.00
2023-03-17T10:11:01.570Z,12.00
2023-03-17T10:16:28.447Z,12.40
2023-03-17T10:22:04.349Z,12.40
2023-03-17T10:27:28.241Z,12.80
2023-03-17T10:32:52.552Z,12.80
2023-03-17T10:38:22.342Z,12.80
2023-03-17T10:43:48.446Z,12.90
2023-03-17T10:49:18.269Z,13.20
2023-03-17T10:54:40.677Z,13.30
2023-03-17T11:00:05.216Z,13.60
2023-03-17T11:05:29.331Z,13.70
2023-03-17T11:10:57.086Z,13.80
2023-03-17T11:16:27.258Z,13.90
2023-03-17T11:21:57.614Z,14.00
2023-03-17T11:27:34.422Z,14.20
2023-03-17T11:33:10.163Z,14.20
2023-03-17T11:38:43.718Z,14.60
2023-03-17T11:44:29.059Z,14.40
2023-03-17T11:50:11.354Z,14.60
2023-03-17T11:55:35.389Z,15.00
2023-03-17T12:01:00.613Z,14.90
2023-03-17T12:06:40.637Z,14.60
2023-03-17T12:12:04.518Z,14.90
2023-03-17T12:17:38.205Z,14.70
2023-03-17T12:23:36.743Z,14.60
2023-03-17T12:29:12.739Z,14.30
2023-03-17T12:34:46.156Z,14.10
2023-03-17T12:40:16.268Z,14.40
2023-03-17T12:45:57.108Z,14.50
2023-03-17T12:52:04.268Z,14.70
2023-03-17T12:57:31.137Z,14.40
2023-03-17T13:03:24.739Z,14.40
2023-03-17T13:08:50.540Z,14.50
2023-03-17T13:14:36.272Z,14.30
2023-03-17T13:20:07.403Z,14.60
2023-03-17T13:25:49.970Z,14.80
2023-03-17T13:31:15.180Z,14.90
2023-03-17T13:37:26.452Z,15.00
2023-03-17T13:43:19.154Z,14.70
2023-03-17T13:48:41.847Z,14.90
2023-03-17T13:54:28.472Z,14.80
2023-03-17T14:00:22.574Z,14.70
2023-03-17T14:05:48.221Z,14.90
2023-03-17T14:11:27.702Z,14.80
2023-03-17T14:17:08.880Z,14.90
2023-03-17T14:22:30.465Z,15.10
2023-03-17T14:27:58.165Z,14.80
2023-03-17T14:33:26.890Z,14.90
2023-03-17T14:38:54.338Z,14.80
2023-03-17T14:44:16.633Z,14.60
2023-03-17T14:49:38.433Z,14.00
2023-03-17T14:55:01.121Z,13.70
2023-03-17T15:00:34.438Z,13.50
2023-03-17T15:06:24.886Z,13.40
2023-03-17T15:11:47.812Z,13.10
2023-03-17T15:17:19.649Z,12.50
2023-03-17T15:22:46.966Z,12.60
2023-03-17T15:28:20.050Z,12.30
2023-03-17T15:33:42.765Z,12.40
2023-03-17T15:39:04.847Z,12.00
2023-03-17T15:44:26.563Z,12.10
2023-03-17T15:49:49.714Z,12.10
2023-03-17T15:55:32.140Z,11.90
2023-03-17T16:00:58.143Z,11.70
2023-03-17T16:06:22.587Z,11.80
2023-03-17T16:11:44.334Z,11.80
2023-03-17T16:17:07.648Z,11.70
2023-03-17T16:22:39.616Z,11.80
2023-03-17T16:28:07.642Z,11.60
2023-03-17T16:33:38.263Z,11.60
2023-03-17T16:39:00.270Z,11.30
2023-03-17T16:44:22.387Z,11.20
2023-03-17T16:49:44.233Z,11.10
2023-03-17T16:55:08.313Z,11.10
2023-03-17T17:00:31.439Z,11.10
2023-03-17T17:05:53.054Z,11.10
2023-03-17T17:11:16.949Z,10.90
2023-03-17T17:16:42.219Z,10.90
2023-03-17T17:22:03.968Z,10.80
2023-03-17T17:27:26.197Z,10.70
2023-03-17T17:32:48.826Z,10.60
2023-03-17T17:38:19.729Z,10.20
2023-03-17T17:43:41.568Z,10.10
2023-03-17T17:49:03.674Z,10.00
2023-03-17T17:54:25.595Z,10.00
2023-03-17T17:59:47.077Z,9.90
2023-03-17T18:05:09.235Z,9.90
2023-03-17T18:10:31.597Z,9.90
2023-03-17T18:15:53.160Z,9.50
2023-03-17T18:21:15.199Z,9.50
2023-03-17T18:26:37.079Z,9.50
2023-03-17T18:31:58.967Z,9.30
2023-03-17T18:37:20.808Z,9.40
2023-03-17T18:42:42.170Z,9.20
2023-03-17T18:48:03.865Z,9.20
2023-03-17T18:53:26.212Z,9.10
2023-03-17T18:58:47.805Z,9.10
2023-03-17T19:04:09.342Z,9.20
2023-03-17T19:09:31.860Z,9.20
2023-03-17T19:14:53.944Z,9.10
2023-03-17T19:20:15.520Z,9.20
2023-03-17T19:25:37.056Z,9.20
2023-03-17T19:30:58.967Z,9.10
2023-03-17T19:36:21.000Z,9.20
2023-03-17T19:41:42.964Z,9.20
2023-03-17T19:47:08.152Z,9.00
2023-03-17T19:52:29.747Z,9.10
2023-03-17T19:57:51.866Z,9.10
2023-03-17T20:03:15.014Z,9.10
2023-03-17T20:08:37.149Z,9.00
2023-03-17T20:13:58.797Z,9.00
2023-03-17T20:19:21.276Z,9.10
2023-03-17T20:24:42.652Z,9.10
2023-03-17T20:30:05.911Z,9.10
2023-03-17T20:35:28.360Z,9.10
2023-03-17T20:40:49.754Z,9.10
2023-03-17T20:46:23.867Z,9.10
2023-03-17T20:51:46.480Z,9.00
2023-03-17T20:57:14.405Z,9.00
2023-03-17T21:02:36.259Z,9.00
2023-03-17T21:07:58.376Z,9.10
2023-03-17T21:13:20.085Z,9.10
2023-03-17T21:18:41.950Z,9.10
2023-03-17T21:24:05.664Z,9.00
2023-03-17T21:29:28.500Z,9.00
2023-03-17T21:34:49.789Z,9.00
2023-03-17T21:40:13.945Z,8.90
2023-03-17T21:45:35.764Z,9.00
2023-03-17T21:50:57.998Z,8.80
2023-03-17T21:56:21.012Z,8.90
2023-03-17T22:01:43.892Z,8.70
2023-03-17T22:07:05.727Z,8.70
2023-03-17T22:12:27.759Z,8.60
2023-03-17T22:17:49.354Z,8.50
2023-03-17T22:23:11.640Z,8.60
2023-03-17T22:28:33.177Z,8.40
2023-03-17T22:33:57.875Z,8.40
2023-03-17T22:39:19.581Z,8.30
2023-03-17T22:44:41.169Z,8.20
2023-03-17T22:50:02.939Z,8.10
2023-03-17T22:55:24.913Z,8.10
2023-03-17T23:00:48.525Z,7.90
2023-03-17T23:06:12.024Z,8.00
2023-03-17T23:11:33.631Z,7.90
2023-03-17T23:16:55.579Z,7.70
2023-03-17T23:22:17.676Z,7.60
2023-03-17T23:27:39.822Z,7.70
2023-03-17T23:33:04.949Z,7.60
2023-03-17T23:38:26.631Z,7.60
2023-03-17T23:43:49.289Z,7.50
2023-03-17T23:49:12.330Z,7.50
2023-03-17T23:54:33.989Z,7.50
2023-03-17T23:59:55.475Z,7.40
